sensor_id;sensor_type;location;lat;lon;timestamp;pressure;altitude;pressure_sealevel;temperature;humidity
8653;BME280;4364;52.426;9.424;2023-04-09T00:01:39;102222.44;;;4.84;99.54
8653;BME280;4364;52.426;9.424;2023-04-09T00:04:05;102215.63;;;4.88;99.90
8653;BME280;4364;52.426;9.424;2023-04-09T00:06:32;102215.81;;;4.80;99.42
8653;BME280;4364;52.426;9.424;2023-04-09T00:08:58;102212.69;;;4.76;99.50
8653;BME280;4364;52.426;9.424;2023-04-09T00:11:24;102211.81;;;4.69;99.90
8653;BME280;4364;52.426;9.424;2023-04-09T00:13:51;102208.44;;;4.60;100.00
8653;BME280;4364;52.426;9.424;2023-04-09T00:16:18;102215.91;;;4.58;100.00
8653;BME280;4364;52.426;9.424;2023-04-09T00:18:44;102213.19;;;4.52;100.00
8653;BME280;4364;52.426;9.424;2023-04-09T00:21:10;102219.56;;;4.44;100.00
8653;BME280;4364;52.426;9.424;2023-04-09T00:23:37;102216.22;;;4.42;100.00
8653;BME280;4364;52.426;9.424;2023-04-09T00:26:04;102213.16;;;4.45;100.00
8653;BME280;4364;52.426;9.424;2023-04-09T00:28:31;102210.06;;;4.48;100.00
8653;BME280;4364;52.426;9.424;2023-04-09T00:30:58;102213.97;;;4.45;99.95
8653;BME280;4364;52.426;9.424;2023-04-09T00:33:24;102220.78;;;4.41;99.92
8653;BME280;4364;52.426;9.424;2023-04-09T00:35:51;102221.78;;;4.34;99.96
8653;BME280;4364;52.426;9.424;2023-04-09T00:38:17;102216.81;;;4.37;100.00
8653;BME280;4364;52.426;9.424;2023-04-09T00:40:48;102218.31;;;4.40;100.00
8653;BME280;4364;52.426;9.424;2023-04-09T00:43:15;102211.03;;;4.40;100.00
8653;BME280;4364;52.426;9.424;2023-04-09T00:45:42;102209.44;;;4.46;100.00
8653;BME280;4364;52.426;9.424;2023-04-09T00:48:10;102215.47;;;4.55;100.00
8653;BME280;4364;52.426;9.424;2023-04-09T00:50:37;102214.88;;;4.59;100.00
8653;BME280;4364;52.426;9.424;2023-04-09T00:53:04;102219.69;;;4.71;100.00
8653;BME280;4364;52.426;9.424;2023-04-09T00:55:31;102217.19;;;4.69;100.00
8653;BME280;4364;52.426;9.424;2023-04-09T00:57:58;102207.91;;;4.78;100.00
8653;BME280;4364;52.426;9.424;2023-04-09T01:00:24;102204.78;;;4.75;100.00
8653;BME280;4364;52.426;9.424;2023-04-09T01:02:55;102208.75;;;4.79;100.00
8653;BME280;4364;52.426;9.424;2023-04-09T01:05:26;102213.34;;;4.85;100.00
8653;BME280;4364;52.426;9.424;2023-04-09T01:10:39;102216.44;;;4.82;100.00
8653;BME280;4364;52.426;9.424;2023-04-09T01:13:18;102209.16;;;4.82;100.00
8653;BME280;4364;52.426;9.424;2023-04-09T01:15:51;102214.78;;;4.88;100.00
8653;BME280;4364;52.426;9.424;2023-04-09T01:18:28;102213.56;;;4.90;100.00
8653;BME280;4364;52.426;9.424;2023-04-09T01:23:58;102211.47;;;4.92;100.00
8653;BME280;4364;52.426;9.424;2023-04-09T01:27:01;102209.69;;;5.06;100.00
8653;BME280;4364;52.426;9.424;2023-04-09T01:29:44;102204.25;;;4.93;100.00
8653;BME280;4364;52.426;9.424;2023-04-09T01:32:13;102207.56;;;4.95;100.00
8653;BME280;4364;52.426;9.424;2023-04-09T01:34:44;102203.16;;;4.87;100.00
8653;BME280;4364;52.426;9.424;2023-04-09T01:37:12;102204.44;;;4.85;100.00
8653;BME280;4364;52.426;9.424;2023-04-09T01:39:41;102200.00;;;4.70;100.00
8653;BME280;4364;52.426;9.424;2023-04-09T01:42:09;102196.28;;;4.71;100.00
8653;BME280;4364;52.426;9.424;2023-04-09T01:44:39;102196.47;;;4.63;100.00
8653;BME280;4364;52.426;9.424;2023-04-09T01:47:07;102191.47;;;4.60;100.00
8653;BME280;4364;52.426;9.424;2023-04-09T01:49:34;102192.91;;;4.62;100.00
8653;BME280;4364;52.426;9.424;2023-04-09T01:52:01;102191.47;;;4.60;100.00
8653;BME280;4364;52.426;9.424;2023-04-09T01:54:28;102190.78;;;4.44;100.00
8653;BME280;4364;52.426;9.424;2023-04-09T01:56:56;102193.00;;;4.41;100.00
8653;BME280;4364;52.426;9.424;2023-04-09T01:59:24;102185.16;;;4.39;100.00
8653;BME280;4364;52.426;9.424;2023-04-09T02:01:59;102195.06;;;4.39;100.00
8653;BME280;4364;52.426;9.424;2023-04-09T02:04:34;102197.31;;;4.29;100.00
8653;BME280;4364;52.426;9.424;2023-04-09T02:09:35;102186.81;;;4.40;100.00
8653;BME280;4364;52.426;9.424;2023-04-09T02:12:08;102182.78;;;4.23;100.00
8653;BME280;4364;52.426;9.424;2023-04-09T02:15:00;102182.78;;;4.23;100.00
8653;BME280;4364;52.426;9.424;2023-04-09T02:17:28;102191.28;;;4.26;100.00
8653;BME280;4364;52.426;9.424;2023-04-09T02:19:55;102195.44;;;4.29;100.00
8653;BME280;4364;52.426;9.424;2023-04-09T02:22:22;102182.00;;;4.36;100.00
8653;BME280;4364;52.426;9.424;2023-04-09T02:24:48;102180.38;;;4.35;100.00
8653;BME280;4364;52.426;9.424;2023-04-09T02:27:15;102196.28;;;4.30;100.00
8653;BME280;4364;52.426;9.424;2023-04-09T02:29:42;102190.91;;;4.30;100.00
8653;BME280;4364;52.426;9.424;2023-04-09T02:32:12;102185.16;;;4.39;100.00
8653;BME280;4364;52.426;9.424;2023-04-09T02:34:38;102181.81;;;4.37;100.00
8653;BME280;4364;52.426;9.424;2023-04-09T02:37:04;102183.28;;;4.40;100.00
8653;BME280;4364;52.426;9.424;2023-04-09T02:39:31;102185.19;;;4.46;100.00
8653;BME280;4364;52.426;9.424;2023-04-09T02:41:58;102188.91;;;4.45;100.00
8653;BME280;4364;52.426;9.424;2023-04-09T02:44:25;102173.09;;;4.35;100.00
8653;BME280;4364;52.426;9.424;2023-04-09T02:46:52;102172.47;;;4.33;100.00
8653;BME280;4364;52.426;9.424;2023-04-09T02:49:19;102181.81;;;4.37;100.00
8653;BME280;4364;52.426;9.424;2023-04-09T02:51:45;102175.41;;;4.38;100.00
8653;BME280;4364;52.426;9.424;2023-04-09T02:54:12;102177.66;;;4.35;100.00
8653;BME280;4364;52.426;9.424;2023-04-09T02:56:39;102163.78;;;4.31;100.00
8653;BME280;4364;52.426;9.424;2023-04-09T02:59:05;102167.88;;;4.27;100.00
8653;BME280;4364;52.426;9.424;2023-04-09T03:01:32;102163.31;;;4.27;100.00
8653;BME280;4364;52.426;9.424;2023-04-09T03:04:00;102164.56;;;4.25;100.00
8653;BME280;4364;52.426;9.424;2023-04-09T03:06:27;102157.22;;;4.12;100.00
8653;BME280;4364;52.426;9.424;2023-04-09T03:08:53;102161.97;;;4.10;100.00
8653;BME280;4364;52.426;9.424;2023-04-09T03:11:20;102165.50;;;4.11;100.00
8653;BME280;4364;52.426;9.424;2023-04-09T03:13:46;102159.34;;;4.17;100.00
8653;BME280;4364;52.426;9.424;2023-04-09T03:16:13;102164.25;;;4.06;100.00
8653;BME280;4364;52.426;9.424;2023-04-09T03:18:40;102162.09;;;3.95;100.00
8653;BME280;4364;52.426;9.424;2023-04-09T03:21:07;102160.22;;;3.96;100.00
8653;BME280;4364;52.426;9.424;2023-04-09T03:23:42;102155.44;;;3.91;100.00
8653;BME280;4364;52.426;9.424;2023-04-09T03:26:09;102164.75;;;3.88;100.00
8653;BME280;4364;52.426;9.424;2023-04-09T03:28:44;102162.28;;;3.94;100.00
8653;BME280;4364;52.426;9.424;2023-04-09T03:31:12;102162.28;;;3.94;100.00
8653;BME280;4364;52.426;9.424;2023-04-09T03:33:42;102167.66;;;3.94;100.00
8653;BME280;4364;52.426;9.424;2023-04-09T03:36:09;102172.00;;;3.88;100.00
8653;BME280;4364;52.426;9.424;2023-04-09T03:38:57;102160.78;;;3.84;100.00
8653;BME280;4364;52.426;9.424;2023-04-09T03:41:30;102161.38;;;3.80;100.00
8653;BME280;4364;52.426;9.424;2023-04-09T03:44:02;102163.88;;;3.81;100.00
8653;BME280;4364;52.426;9.424;2023-04-09T03:46:34;102163.91;;;3.88;100.00
8653;BME280;4364;52.426;9.424;2023-04-09T03:49:02;102165.88;;;3.73;100.00
8653;BME280;4364;52.426;9.424;2023-04-09T03:51:37;102155.66;;;3.61;100.00
8653;BME280;4364;52.426;9.424;2023-04-09T03:54:03;102158.81;;;3.71;100.00
8653;BME280;4364;52.426;9.424;2023-04-09T03:56:31;102153.41;;;3.65;100.00
8653;BME280;4364;52.426;9.424;2023-04-09T03:58:58;102157.34;;;3.69;100.00
8653;BME280;4364;52.426;9.424;2023-04-09T04:01:34;102155.66;;;3.61;100.00
8653;BME280;4364;52.426;9.424;2023-04-09T04:04:01;102156.91;;;3.65;100.00
8653;BME280;4364;52.426;9.424;2023-04-09T04:06:34;102157.91;;;3.58;100.00
8653;BME280;4364;52.426;9.424;2023-04-09T04:09:10;102155.53;;;3.48;100.00
8653;BME280;4364;52.426;9.424;2023-04-09T04:11:42;102158.16;;;3.41;100.00
8653;BME280;4364;52.426;9.424;2023-04-09T04:14:09;102157.31;;;3.41;100.00
8653;BME280;4364;52.426;9.424;2023-04-09T04:16:42;102166.81;;;3.37;100.00
8653;BME280;4364;52.426;9.424;2023-04-09T04:19:12;102160.84;;;3.41;100.00
8653;BME280;4364;52.426;9.424;2023-04-09T04:21:44;102160.59;;;3.36;100.00
8653;BME280;4364;52.426;9.424;2023-04-09T04:24:10;102154.91;;;3.46;100.00
8653;BME280;4364;52.426;9.424;2023-04-09T04:26:39;102170.75;;;3.41;100.00
8653;BME280;4364;52.426;9.424;2023-04-09T04:29:06;102160.00;;;3.41;100.00
8653;BME280;4364;52.426;9.424;2023-04-09T04:31:54;102169.81;;;3.48;100.00
8653;BME280;4364;52.426;9.424;2023-04-09T04:34:23;102162.19;;;3.52;100.00
8653;BME280;4364;52.426;9.424;2023-04-09T04:36:58;102163.41;;;3.49;100.00
8653;BME280;4364;52.426;9.424;2023-04-09T04:39:30;102174.16;;;3.49;100.00
8653;BME280;4364;52.426;9.424;2023-04-09T04:42:04;102176.00;;;3.49;100.00
8653;BME280;4364;52.426;9.424;2023-04-09T04:44:31;102172.31;;;3.50;100.00
8653;BME280;4364;52.426;9.424;2023-04-09T04:47:08;102178.88;;;3.47;100.00
8653;BME280;4364;52.426;9.424;2023-04-09T04:49:34;102179.94;;;3.46;100.00
8653;BME280;4364;52.426;9.424;2023-04-09T04:52:03;102178.31;;;3.52;100.00
8653;BME280;4364;52.426;9.424;2023-04-09T04:54:32;102177.13;;;3.55;100.00
8653;BME280;4364;52.426;9.424;2023-04-09T04:56:59;102177.56;;;3.58;100.00
8653;BME280;4364;52.426;9.424;2023-04-09T04:59:39;102186.63;;;3.57;100.00
8653;BME280;4364;52.426;9.424;2023-04-09T05:02:08;102174.22;;;3.56;100.00
8653;BME280;4364;52.426;9.424;2023-04-09T05:04:45;102183.44;;;3.47;100.00
8653;BME280;4364;52.426;9.424;2023-04-09T05:07:15;102189.22;;;3.44;100.00
8653;BME280;4364;52.426;9.424;2023-04-09T05:09:48;102188.75;;;3.40;100.00
8653;BME280;4364;52.426;9.424;2023-04-09T05:12:15;102185.88;;;3.42;100.00
8653;BME280;4364;52.426;9.424;2023-04-09T05:14:47;102189.13;;;3.37;100.00
8653;BME280;4364;52.426;9.424;2023-04-09T05:17:14;102194.56;;;3.22;100.00
8653;BME280;4364;52.426;9.424;2023-04-09T05:19:43;102182.63;;;3.25;100.00
8653;BME280;4364;52.426;9.424;2023-04-09T05:22:12;102192.56;;;3.24;100.00
8653;BME280;4364;52.426;9.424;2023-04-09T05:24:38;102195.06;;;3.26;100.00
8653;BME280;4364;52.426;9.424;2023-04-09T05:27:05;102189.81;;;3.39;100.00
8653;BME280;4364;52.426;9.424;2023-04-09T05:29:31;102186.38;;;3.30;100.00
8653;BME280;4364;52.426;9.424;2023-04-09T05:31:58;102189.34;;;3.36;100.00
8653;BME280;4364;52.426;9.424;2023-04-09T05:34:30;102189.59;;;3.41;100.00
8653;BME280;4364;52.426;9.424;2023-04-09T05:36:58;102194.41;;;3.45;100.00
8653;BME280;4364;52.426;9.424;2023-04-09T05:39:24;102196.50;;;3.50;100.00
8653;BME280;4364;52.426;9.424;2023-04-09T05:41:51;102201.75;;;3.58;100.00
8653;BME280;4364;52.426;9.424;2023-04-09T05:44:30;102204.88;;;3.62;100.00
8653;BME280;4364;52.426;9.424;2023-04-09T05:47:07;102203.88;;;3.63;100.00
8653;BME280;4364;52.426;9.424;2023-04-09T05:49:40;102204.94;;;3.68;100.00
8653;BME280;4364;52.426;9.424;2023-04-09T05:52:11;102199.81;;;3.74;100.00
8653;BME280;4364;52.426;9.424;2023-04-09T05:54:39;102200.75;;;3.59;100.00
8653;BME280;4364;52.426;9.424;2023-04-09T05:57:08;102204.19;;;3.53;100.00
8653;BME280;4364;52.426;9.424;2023-04-09T05:59:37;102206.63;;;3.69;100.00
8653;BME280;4364;52.426;9.424;2023-04-09T06:02:03;102195.00;;;3.69;100.00
8653;BME280;4364;52.426;9.424;2023-04-09T06:04:31;102199.63;;;3.75;100.00
8653;BME280;4364;52.426;9.424;2023-04-09T06:06:59;102204.75;;;3.70;100.00
8653;BME280;4364;52.426;9.424;2023-04-09T06:09:25;102205.72;;;3.62;100.00
8653;BME280;4364;52.426;9.424;2023-04-09T06:11:53;102204.75;;;3.70;100.00
8653;BME280;4364;52.426;9.424;2023-04-09T06:14:19;102205.78;;;3.69;100.00
8653;BME280;4364;52.426;9.424;2023-04-09T06:16:46;102208.28;;;3.70;100.00
8653;BME280;4364;52.426;9.424;2023-04-09T06:19:15;102204.44;;;3.80;100.00
8653;BME280;4364;52.426;9.424;2023-04-09T06:21:41;102209.00;;;3.79;100.00
8653;BME280;4364;52.426;9.424;2023-04-09T06:24:08;102198.38;;;3.71;100.00
8653;BME280;4364;52.426;9.424;2023-04-09T06:26:34;102212.97;;;3.62;100.00
8653;BME280;4364;52.426;9.424;2023-04-09T06:29:01;102217.06;;;3.58;100.00
8653;BME280;4364;52.426;9.424;2023-04-09T06:31:28;102212.38;;;3.66;100.00
8653;BME280;4364;52.426;9.424;2023-04-09T06:33:55;102211.69;;;3.58;100.00
8653;BME280;4364;52.426;9.424;2023-04-09T06:36:22;102218.34;;;3.62;100.00
8653;BME280;4364;52.426;9.424;2023-04-09T06:38:48;102222.19;;;3.52;100.00
8653;BME280;4364;52.426;9.424;2023-04-09T06:41:14;102226.78;;;3.37;100.00
8653;BME280;4364;52.426;9.424;2023-04-09T06:43:41;102226.03;;;3.43;100.00
8653;BME280;4364;52.426;9.424;2023-04-09T06:46:08;102224.97;;;3.59;100.00
8653;BME280;4364;52.426;9.424;2023-04-09T06:48:34;102230.28;;;3.52;100.00
8653;BME280;4364;52.426;9.424;2023-04-09T06:51:01;102229.34;;;3.67;100.00
8653;BME280;4364;52.426;9.424;2023-04-09T06:53:28;102223.75;;;3.90;100.00
8653;BME280;4364;52.426;9.424;2023-04-09T06:55:55;102221.44;;;3.87;100.00
8653;BME280;4364;52.426;9.424;2023-04-09T06:58:22;102223.56;;;3.92;100.00
8653;BME280;4364;52.426;9.424;2023-04-09T07:00:49;102232.75;;;4.04;100.00
8653;BME280;4364;52.426;9.424;2023-04-09T07:03:15;102229.63;;;4.00;100.00
8653;BME280;4364;52.426;9.424;2023-04-09T07:05:42;102236.19;;;3.91;100.00
8653;BME280;4364;52.426;9.424;2023-04-09T07:08:09;102239.84;;;3.83;100.00
8653;BME280;4364;52.426;9.424;2023-04-09T07:10:37;102227.47;;;3.89;100.00
8653;BME280;4364;52.426;9.424;2023-04-09T07:13:03;102225.53;;;4.04;100.00
8653;BME280;4364;52.426;9.424;2023-04-09T07:15:30;102228.47;;;4.10;100.00
8653;BME280;4364;52.426;9.424;2023-04-09T07:17:57;102228.16;;;4.26;100.00
8653;BME280;4364;52.426;9.424;2023-04-09T07:20:23;102229.22;;;4.32;100.00
8653;BME280;4364;52.426;9.424;2023-04-09T07:22:50;102235.03;;;4.35;100.00
8653;BME280;4364;52.426;9.424;2023-04-09T07:25:16;102238.84;;;4.48;100.00
8653;BME280;4364;52.426;9.424;2023-04-09T07:27:43;102226.06;;;4.56;100.00
8653;BME280;4364;52.426;9.424;2023-04-09T07:30:09;102241.03;;;4.72;100.00
8653;BME280;4364;52.426;9.424;2023-04-09T07:32:36;102241.72;;;4.88;100.00
8653;BME280;4364;52.426;9.424;2023-04-09T07:35:06;102236.78;;;4.91;100.00
8653;BME280;4364;52.426;9.424;2023-04-09T07:37:33;102241.38;;;5.04;100.00
8653;BME280;4364;52.426;9.424;2023-04-09T07:39:59;102239.13;;;5.08;100.00
8653;BME280;4364;52.426;9.424;2023-04-09T07:42:26;102237.06;;;5.10;100.00
8653;BME280;4364;52.426;9.424;2023-04-09T07:44:53;102241.03;;;5.20;100.00
8653;BME280;4364;52.426;9.424;2023-04-09T07:47:20;102236.47;;;5.28;100.00
8653;BME280;4364;52.426;9.424;2023-04-09T07:49:46;102237.31;;;5.28;100.00
8653;BME280;4364;52.426;9.424;2023-04-09T07:52:13;102235.25;;;5.37;100.00
8653;BME280;4364;52.426;9.424;2023-04-09T07:54:40;102241.72;;;5.56;100.00
8653;BME280;4364;52.426;9.424;2023-04-09T07:57:07;102233.63;;;5.63;100.00
8653;BME280;4364;52.426;9.424;2023-04-09T07:59:34;102231.78;;;5.70;100.00
8653;BME280;4364;52.426;9.424;2023-04-09T08:02:01;102241.31;;;5.72;100.00
8653;BME280;4364;52.426;9.424;2023-04-09T08:04:30;102241.31;;;5.92;100.00
8653;BME280;4364;52.426;9.424;2023-04-09T08:06:57;102237.81;;;5.92;100.00
8653;BME280;4364;52.426;9.424;2023-04-09T08:09:23;102223.50;;;6.05;99.49
8653;BME280;4364;52.426;9.424;2023-04-09T08:11:50;102230.94;;;6.16;98.41
8653;BME280;4364;52.426;9.424;2023-04-09T08:14:17;102229.09;;;6.23;97.45
8653;BME280;4364;52.426;9.424;2023-04-09T08:17:09;102229.31;;;6.22;95.83
8653;BME280;4364;52.426;9.424;2023-04-09T08:19:35;102229.50;;;6.14;96.61
8653;BME280;4364;52.426;9.424;2023-04-09T08:22:01;102235.13;;;6.19;97.22
8653;BME280;4364;52.426;9.424;2023-04-09T08:24:28;102233.41;;;6.38;96.85
8653;BME280;4364;52.426;9.424;2023-04-09T08:26:56;102235.28;;;6.37;96.44
8653;BME280;4364;52.426;9.424;2023-04-09T08:29:22;102238.16;;;6.49;96.24
8653;BME280;4364;52.426;9.424;2023-04-09T08:31:49;102236.66;;;6.66;95.32
8653;BME280;4364;52.426;9.424;2023-04-09T08:34:16;102235.63;;;6.67;94.51
8653;BME280;4364;52.426;9.424;2023-04-09T08:36:49;102239.59;;;6.65;94.40
8653;BME280;4364;52.426;9.424;2023-04-09T08:39:18;102241.44;;;6.71;94.58
8653;BME280;4364;52.426;9.424;2023-04-09T08:41:46;102240.81;;;6.69;94.60
8653;BME280;4364;52.426;9.424;2023-04-09T08:44:13;102238.69;;;6.78;93.07
8653;BME280;4364;52.426;9.424;2023-04-09T08:46:40;102238.38;;;6.54;93.59
8653;BME280;4364;52.426;9.424;2023-04-09T08:49:09;102242.06;;;6.60;94.55
8653;BME280;4364;52.426;9.424;2023-04-09T08:51:36;102241.44;;;6.71;94.15
8653;BME280;4364;52.426;9.424;2023-04-09T08:54:02;102239.53;;;6.85;93.92
8653;BME280;4364;52.426;9.424;2023-04-09T08:56:49;102241.16;;;6.86;92.35
8653;BME280;4364;52.426;9.424;2023-04-09T08:59:16;102240.00;;;6.68;92.71
8653;BME280;4364;52.426;9.424;2023-04-09T09:01:44;102231.44;;;6.78;92.71
8653;BME280;4364;52.426;9.424;2023-04-09T09:04:13;102242.16;;;6.98;92.61
8653;BME280;4364;52.426;9.424;2023-04-09T09:06:40;102234.91;;;6.92;91.45
8653;BME280;4364;52.426;9.424;2023-04-09T09:09:13;102235.28;;;7.02;91.35
8653;BME280;4364;52.426;9.424;2023-04-09T09:11:42;102232.69;;;7.21;91.08
8653;BME280;4364;52.426;9.424;2023-04-09T09:14:11;102228.69;;;7.30;89.93
8653;BME280;4364;52.426;9.424;2023-04-09T09:16:41;102231.56;;;7.35;89.73
8653;BME280;4364;52.426;9.424;2023-04-09T09:19:27;102225.25;;;7.41;89.27
8653;BME280;4364;52.426;9.424;2023-04-09T09:21:56;102238.50;;;7.56;89.06
8653;BME280;4364;52.426;9.424;2023-04-09T09:24:23;102235.69;;;7.70;88.85
8653;BME280;4364;52.426;9.424;2023-04-09T09:26:51;102227.34;;;7.71;87.97
8653;BME280;4364;52.426;9.424;2023-04-09T09:29:17;102237.34;;;7.71;87.87
8653;BME280;4364;52.426;9.424;2023-04-09T09:31:50;102235.34;;;7.85;86.78
8653;BME280;4364;52.426;9.424;2023-04-09T09:34:21;102240.34;;;7.88;86.21
8653;BME280;4364;52.426;9.424;2023-04-09T09:36:47;102232.44;;;7.86;86.11
8653;BME280;4364;52.426;9.424;2023-04-09T09:39:14;102236.16;;;7.92;86.20
8653;BME280;4364;52.426;9.424;2023-04-09T09:41:48;102239.41;;;8.01;86.64
8653;BME280;4364;52.426;9.424;2023-04-09T09:44:32;102235.34;;;8.10;85.29
8653;BME280;4364;52.426;9.424;2023-04-09T09:46:59;102237.84;;;8.11;85.45
8653;BME280;4364;52.426;9.424;2023-04-09T09:49:28;102233.81;;;8.21;85.05
8653;BME280;4364;52.426;9.424;2023-04-09T09:51:57;102233.06;;;8.07;84.95
8653;BME280;4364;52.426;9.424;2023-04-09T09:54:25;102231.09;;;8.21;83.42
8653;BME280;4364;52.426;9.424;2023-04-09T09:56:57;102228.75;;;8.24;82.88
8653;BME280;4364;52.426;9.424;2023-04-09T09:59:30;102235.72;;;8.13;83.30
8653;BME280;4364;52.426;9.424;2023-04-09T10:02:03;102227.72;;;8.25;83.64
8653;BME280;4364;52.426;9.424;2023-04-09T10:04:33;102225.38;;;8.29;83.01
8653;BME280;4364;52.426;9.424;2023-04-09T10:07:04;102226.91;;;8.43;82.71
8653;BME280;4364;52.426;9.424;2023-04-09T10:09:34;102231.81;;;8.53;82.00
8653;BME280;4364;52.426;9.424;2023-04-09T10:12:05;102221.03;;;8.65;80.90
8653;BME280;4364;52.426;9.424;2023-04-09T10:14:35;102226.38;;;8.71;81.12
8653;BME280;4364;52.426;9.424;2023-04-09T10:17:03;102221.41;;;8.87;81.11
8653;BME280;4364;52.426;9.424;2023-04-09T10:19:30;102212.03;;;9.01;78.87
8653;BME280;4364;52.426;9.424;2023-04-09T10:22:09;102219.13;;;9.02;79.16
8653;BME280;4364;52.426;9.424;2023-04-09T10:24:40;102214.97;;;9.00;78.68
8653;BME280;4364;52.426;9.424;2023-04-09T10:27:09;102206.28;;;9.09;78.59
8653;BME280;4364;52.426;9.424;2023-04-09T10:29:46;102207.91;;;9.29;76.99
8653;BME280;4364;52.426;9.424;2023-04-09T10:32:22;102200.25;;;9.38;77.71
8653;BME280;4364;52.426;9.424;2023-04-09T10:34:55;102194.25;;;9.48;76.64
8653;BME280;4364;52.426;9.424;2023-04-09T10:37:23;102197.81;;;9.60;75.87
8653;BME280;4364;52.426;9.424;2023-04-09T10:39:51;102189.56;;;9.67;75.67
8653;BME280;4364;52.426;9.424;2023-04-09T10:42:47;102190.75;;;9.82;76.23
8653;BME280;4364;52.426;9.424;2023-04-09T10:45:14;102187.34;;;10.11;74.06
8653;BME280;4364;52.426;9.424;2023-04-09T10:47:42;102180.91;;;10.29;72.08
8653;BME280;4364;52.426;9.424;2023-04-09T10:50:20;102184.50;;;10.06;72.89
8653;BME280;4364;52.426;9.424;2023-04-09T10:52:56;102187.19;;;10.29;72.37
8653;BME280;4364;52.426;9.424;2023-04-09T10:55:39;102192.03;;;10.27;71.86
8653;BME280;4364;52.426;9.424;2023-04-09T10:58:08;102189.44;;;10.09;73.55
8653;BME280;4364;52.426;9.424;2023-04-09T11:00:43;102190.38;;;10.26;72.03
8653;BME280;4364;52.426;9.424;2023-04-09T11:03:27;102182.13;;;10.45;71.67
8653;BME280;4364;52.426;9.424;2023-04-09T11:06:03;102178.31;;;10.86;71.29
8653;BME280;4364;52.426;9.424;2023-04-09T11:08:35;102179.72;;;10.89;69.78
8653;BME280;4364;52.426;9.424;2023-04-09T11:11:03;102166.13;;;11.18;70.86
8653;BME280;4364;52.426;9.424;2023-04-09T11:13:30;102168.53;;;11.31;69.54
8653;BME280;4364;52.426;9.424;2023-04-09T11:15:57;102169.28;;;11.43;68.50
8653;BME280;4364;52.426;9.424;2023-04-09T11:18:27;102158.88;;;11.40;68.18
8653;BME280;4364;52.426;9.424;2023-04-09T11:20:57;102160.94;;;11.50;67.14
8653;BME280;4364;52.426;9.424;2023-04-09T11:23:23;102154.06;;;11.30;66.73
8653;BME280;4364;52.426;9.424;2023-04-09T11:25:51;102160.44;;;11.36;66.39
8653;BME280;4364;52.426;9.424;2023-04-09T11:28:19;102160.13;;;11.49;67.23
8653;BME280;4364;52.426;9.424;2023-04-09T11:30:46;102163.25;;;11.75;65.77
8653;BME280;4364;52.426;9.424;2023-04-09T11:33:13;102165.63;;;11.72;66.57
8653;BME280;4364;52.426;9.424;2023-04-09T11:35:42;102155.63;;;11.77;66.71
8653;BME280;4364;52.426;9.424;2023-04-09T11:38:09;102152.41;;;11.97;65.64
8653;BME280;4364;52.426;9.424;2023-04-09T11:40:41;102157.94;;;12.02;65.02
8653;BME280;4364;52.426;9.424;2023-04-09T11:43:14;102157.88;;;11.80;64.86
8653;BME280;4364;52.426;9.424;2023-04-09T11:45:42;102160.59;;;11.63;65.23
8653;BME280;4364;52.426;9.424;2023-04-09T11:48:10;102154.16;;;12.03;64.68
8653;BME280;4364;52.426;9.424;2023-04-09T11:50:39;102158.06;;;12.30;64.32
8653;BME280;4364;52.426;9.424;2023-04-09T11:53:19;102150.91;;;12.73;63.95
8653;BME280;4364;52.426;9.424;2023-04-09T11:55:48;102149.84;;;13.01;61.62
8653;BME280;4364;52.426;9.424;2023-04-09T11:58:15;102143.50;;;12.68;60.64
8653;BME280;4364;52.426;9.424;2023-04-09T12:00:42;102148.34;;;12.39;62.20
8653;BME280;4364;52.426;9.424;2023-04-09T12:03:09;102144.72;;;12.33;62.58
8653;BME280;4364;52.426;9.424;2023-04-09T12:05:38;102146.16;;;12.41;62.97
8653;BME280;4364;52.426;9.424;2023-04-09T12:08:07;102149.72;;;12.64;61.62
8653;BME280;4364;52.426;9.424;2023-04-09T12:10:36;102147.50;;;12.16;63.19
8653;BME280;4364;52.426;9.424;2023-04-09T12:13:04;102151.25;;;12.10;63.31
8653;BME280;4364;52.426;9.424;2023-04-09T12:15:33;102146.72;;;11.99;63.93
8653;BME280;4364;52.426;9.424;2023-04-09T12:18:09;102155.69;;;11.82;64.49
8653;BME280;4364;52.426;9.424;2023-04-09T12:20:40;102161.75;;;11.84;63.22
8653;BME280;4364;52.426;9.424;2023-04-09T12:23:09;102154.09;;;11.64;63.17
8653;BME280;4364;52.426;9.424;2023-04-09T12:25:37;102152.53;;;11.35;64.24
8653;BME280;4364;52.426;9.424;2023-04-09T12:28:05;102142.66;;;11.00;65.55
8653;BME280;4364;52.426;9.424;2023-04-09T12:30:33;102146.03;;;11.07;65.47
8653;BME280;4364;52.426;9.424;2023-04-09T12:33:01;102143.03;;;10.91;67.02
8653;BME280;4364;52.426;9.424;2023-04-09T12:35:28;102150.66;;;11.06;66.50
8653;BME280;4364;52.426;9.424;2023-04-09T12:37:56;102144.53;;;10.99;66.83
8653;BME280;4364;52.426;9.424;2023-04-09T12:40:24;102141.50;;;11.12;66.03
8653;BME280;4364;52.426;9.424;2023-04-09T12:42:50;102138.91;;;11.35;64.31
8653;BME280;4364;52.426;9.424;2023-04-09T12:45:18;102132.69;;;11.22;64.64
8653;BME280;4364;52.426;9.424;2023-04-09T12:47:45;102134.19;;;11.30;64.69
8653;BME280;4364;52.426;9.424;2023-04-09T12:50:13;102128.34;;;11.21;64.47
8653;BME280;4364;52.426;9.424;2023-04-09T12:52:42;102126.41;;;11.05;65.25
8653;BME280;4364;52.426;9.424;2023-04-09T12:55:11;102130.13;;;11.16;65.12
8653;BME280;4364;52.426;9.424;2023-04-09T12:57:40;102134.91;;;11.25;64.73
8653;BME280;4364;52.426;9.424;2023-04-09T13:00:07;102130.56;;;11.24;63.73
8653;BME280;4364;52.426;9.424;2023-04-09T13:02:34;102131.78;;;11.17;62.90
8653;BME280;4364;52.426;9.424;2023-04-09T13:05:01;102128.56;;;11.03;63.43
8653;BME280;4364;52.426;9.424;2023-04-09T13:07:28;102123.47;;;11.23;63.21
8653;BME280;4364;52.426;9.424;2023-04-09T13:10:02;102125.38;;;11.23;61.46
8653;BME280;4364;52.426;9.424;2023-04-09T13:12:29;102122.94;;;11.60;60.64
8653;BME280;4364;52.426;9.424;2023-04-09T13:14:57;102119.22;;;11.83;60.64
8653;BME280;4364;52.426;9.424;2023-04-09T13:17:24;102119.50;;;11.65;59.53
8653;BME280;4364;52.426;9.424;2023-04-09T13:19:51;102118.56;;;11.59;59.17
8653;BME280;4364;52.426;9.424;2023-04-09T13:22:18;102120.00;;;11.45;58.56
8653;BME280;4364;52.426;9.424;2023-04-09T13:24:44;102111.25;;;11.60;59.38
8653;BME280;4364;52.426;9.424;2023-04-09T13:27:11;102110.66;;;11.58;59.74
8653;BME280;4364;52.426;9.424;2023-04-09T13:29:38;102105.75;;;11.77;60.04
8653;BME280;4364;52.426;9.424;2023-04-09T13:32:04;102106.38;;;12.01;57.80